Time;durP1;ratioP1;P1;durP2;ratioP2;P2;SDS_P1;SDS_P2;PMS_P1;PMS_P2;Temp;Humidity;BMP_temperature;BMP_pressure;BME280_temperature;BME280_humidity;BME280_pressure;Samples;Min_cycle;Max_cycle;Signal;HPM_P1;HPM_P2
2023/05/11 00:00:09;;;;;;;13.33;10.40;;;12.20;99.90;;;;;;5099838;28;20558;-59
2023/05/11 00:02:36;;;;;;;10.93;9.10;;;12.20;99.90;;;;;;5099071;28;20439;-59
2023/05/11 00:05:04;;;;;;;11.37;9.80;;;12.20;99.90;;;;;;5100407;28;20542;-60
2023/05/11 00:07:31;;;;;;;11.70;10.27;;;12.20;99.90;;;;;;5100166;28;20929;-60
2023/05/11 00:09:58;;;;;;;13.03;10.40;;;12.20;99.90;;;;;;5099723;28;20746;-57
2023/05/11 00:12:26;;;;;;;13.23;11.13;;;12.20;99.90;;;;;;5100084;28;20442;-59
2023/05/11 00:14:54;;;;;;;14.93;12.70;;;12.20;99.90;;;;;;5099729;28;20457;-60
2023/05/11 00:17:21;;;;;;;16.57;11.87;;;12.10;99.90;;;;;;5091650;28;20456;-60
2023/05/11 00:19:49;;;;;;;14.33;12.23;;;12.10;99.90;;;;;;5099414;28;20472;-58
2023/05/11 00:22:16;;;;;;;13.30;11.87;;;12.10;99.90;;;;;;5099612;28;20460;-60
2023/05/11 00:24:43;;;;;;;12.50;11.13;;;12.00;99.90;;;;;;5099827;28;20499;-59
2023/05/11 00:27:10;;;;;;;14.43;12.57;;;12.10;99.90;;;;;;5099379;28;20470;-58
2023/05/11 00:29:37;;;;;;;13.03;11.63;;;12.10;99.90;;;;;;5099079;28;20903;-60
2023/05/11 00:32:06;;;;;;;16.07;13.17;;;12.10;99.90;;;;;;5098442;28;20587;-60
2023/05/11 00:34:33;;;;;;;14.80;13.27;;;12.10;99.90;;;;;;5099568;28;20503;-60
2023/05/11 00:37:00;;;;;;;15.97;12.20;;;12.10;99.90;;;;;;5099267;28;20550;-60
2023/05/11 00:39:27;;;;;;;15.10;12.57;;;12.10;99.90;;;;;;5099245;28;20490;-59
2023/05/11 00:41:55;;;;;;;14.33;12.60;;;12.10;99.90;;;;;;5099451;28;20480;-59
2023/05/11 00:44:22;;;;;;;19.10;14.07;;;12.10;99.90;;;;;;5099148;28;20799;-60
2023/05/11 00:46:49;;;;;;;14.53;12.50;;;12.10;99.90;;;;;;5099087;28;20527;-59
2023/05/11 00:49:20;;;;;;;18.73;13.40;;;12.10;99.90;;;;;;5099106;28;20555;-60
2023/05/11 00:51:47;;;;;;;16.67;14.90;;;12.10;99.90;;;;;;5099168;28;20468;-59
2023/05/11 00:54:15;;;;;;;15.57;13.80;;;12.10;99.90;;;;;;5098854;28;20503;-58
2023/05/11 00:56:42;;;;;;;16.40;13.43;;;12.10;99.90;;;;;;5098955;28;20517;-60
2023/05/11 00:59:10;;;;;;;20.00;15.77;;;12.10;99.90;;;;;;5099344;28;20771;-59
2023/05/11 01:01:39;;;;;;;16.40;13.80;;;12.10;99.90;;;;;;5098297;28;20518;-60
2023/05/11 01:04:07;;;;;;;19.87;15.50;;;12.10;99.90;;;;;;5098686;28;20464;-60
2023/05/11 01:06:45;;;;;;;16.83;14.73;;;12.10;99.90;;;;;;5098478;28;20503;-60
2023/05/11 01:09:27;;;;;;;19.43;15.80;;;12.10;99.90;;;;;;5099043;28;20468;-59
2023/05/11 01:12:06;;;;;;;17.93;15.60;;;12.10;99.90;;;;;;5098491;28;20541;-60
2023/05/11 01:14:39;;;;;;;20.83;15.40;;;12.20;99.90;;;;;;5098389;28;20434;-60
2023/05/11 01:17:11;;;;;;;17.73;15.90;;;12.10;99.90;;;;;;5098725;28;20772;-58
2023/05/11 01:19:43;;;;;;;17.13;15.30;;;12.10;99.90;;;;;;5097641;28;20464;-60
2023/05/11 01:22:31;;;;;;;18.20;15.40;;;12.10;99.90;;;;;;5098333;28;20551;-60
2023/05/11 01:25:11;;;;;;;18.77;15.90;;;12.10;99.90;;;;;;5098127;28;20521;-59
2023/05/11 01:28:01;;;;;;;17.53;15.20;;;12.20;99.90;;;;;;5097420;28;20560;-60
2023/05/11 01:30:40;;;;;;;18.50;15.40;;;12.10;99.90;;;;;;5097913;28;20469;-60
2023/05/11 01:33:10;;;;;;;19.53;15.93;;;12.10;99.90;;;;;;5098287;28;20456;-60
2023/05/11 01:35:43;;;;;;;19.67;16.00;;;12.20;99.90;;;;;;5097726;28;20511;-59
2023/05/11 01:38:14;;;;;;;22.10;17.70;;;12.10;99.90;;;;;;5097736;28;20872;-59
2023/05/11 01:40:44;;;;;;;22.33;16.83;;;12.10;99.90;;;;;;5098310;28;20869;-59
2023/05/11 01:43:14;;;;;;;17.77;14.73;;;12.10;99.90;;;;;;5097582;28;20464;-60
2023/05/11 01:45:47;;;;;;;17.73;15.33;;;12.10;99.90;;;;;;5097656;28;20587;-58
2023/05/11 01:48:18;;;;;;;20.97;15.77;;;12.10;99.90;;;;;;5097628;28;20957;-58
2023/05/11 01:50:48;;;;;;;20.23;15.97;;;12.10;99.90;;;;;;5097853;28;20562;-60
2023/05/11 01:53:16;;;;;;;19.53;15.50;;;12.10;99.90;;;;;;5097225;28;20467;-58
2023/05/11 01:55:45;;;;;;;20.43;17.17;;;12.10;99.90;;;;;;5097173;28;20431;-58
2023/05/11 01:58:15;;;;;;;19.80;16.77;;;12.10;99.90;;;;;;5097320;28;20513;-56
2023/05/11 02:00:45;;;;;;;20.07;17.07;;;12.10;99.90;;;;;;5097501;28;20517;-57
2023/05/11 02:03:14;;;;;;;24.60;17.80;;;12.10;99.90;;;;;;5097528;28;20439;-60
2023/05/11 02:05:42;;;;;;;21.97;18.27;;;12.20;99.90;;;;;;5096719;28;20591;-59
2023/05/11 02:08:12;;;;;;;28.80;22.80;;;12.20;99.90;;;;;;5097671;28;20960;-60
2023/05/11 02:10:41;;;;;;;40.17;25.10;;;12.30;99.90;;;;;;5097690;28;20465;-59
2023/05/11 02:13:09;;;;;;;37.43;25.33;;;12.30;99.90;;;;;;5097467;28;20839;-60
2023/05/11 02:15:40;;;;;;;34.83;26.50;;;12.20;99.90;;;;;;5097157;28;20551;-60
2023/05/11 02:18:11;;;;;;;34.90;26.70;;;12.20;99.90;;;;;;5093274;28;20455;-59
2023/05/11 02:20:41;;;;;;;38.17;26.17;;;12.10;99.90;;;;;;5077373;28;20508;-58
2023/05/11 02:23:10;;;;;;;35.90;26.60;;;12.10;99.90;;;;;;5085584;28;20472;-59
2023/05/11 02:25:39;;;;;;;36.17;27.30;;;12.10;99.90;;;;;;5097068;28;20463;-61
2023/05/11 02:28:07;;;;;;;36.10;27.47;;;12.10;99.90;;;;;;5088837;28;20551;-61
2023/05/11 02:30:39;;;;;;;40.30;28.63;;;12.20;99.90;;;;;;5077201;28;20477;-58
2023/05/11 02:33:10;;;;;;;34.27;27.07;;;12.10;99.90;;;;;;5077417;28;20540;-60
2023/05/11 02:35:41;;;;;;;37.33;27.70;;;12.00;99.90;;;;;;5076849;28;20503;-59
2023/05/11 02:38:11;;;;;;;35.63;27.83;;;12.00;99.90;;;;;;5076726;28;20531;-58
2023/05/11 02:40:42;;;;;;;36.00;28.43;;;12.00;99.90;;;;;;5076881;28;20440;-60
2023/05/11 02:43:13;;;;;;;35.93;27.40;;;12.00;99.90;;;;;;5076669;28;20466;-61
2023/05/11 02:45:44;;;;;;;34.07;27.03;;;11.90;99.90;;;;;;5076342;28;20585;-60
2023/05/11 02:48:29;;;;;;;30.73;26.03;;;11.90;99.90;;;;;;5076747;28;20948;-61
2023/05/11 02:50:58;;;;;;;32.50;24.37;;;11.90;99.90;;;;;;5077065;28;20468;-60
2023/05/11 02:53:28;;;;;;;29.47;23.23;;;11.80;99.90;;;;;;5076650;28;20552;-61
2023/05/11 02:55:55;;;;;;;32.67;26.13;;;11.90;99.90;;;;;;5079921;28;20966;-60
2023/05/11 02:58:23;;;;;;;34.20;25.97;;;11.90;99.90;;;;;;5080759;28;20943;-60
2023/05/11 03:00:50;;;;;;;30.93;24.20;;;12.00;99.90;;;;;;5080890;28;20457;-61
2023/05/11 03:03:19;;;;;;;35.63;26.30;;;12.00;99.90;;;;;;5080824;28;20899;-58
2023/05/11 03:05:46;;;;;;;29.90;25.17;;;11.90;99.90;;;;;;5080475;28;20485;-60
2023/05/11 03:08:13;;;;;;;29.87;24.73;;;11.90;99.90;;;;;;5080104;28;20471;-60
2023/05/11 03:10:41;;;;;;;27.93;22.57;;;11.90;99.90;;;;;;5080341;28;20526;-60
2023/05/11 03:13:09;;;;;;;26.60;23.33;;;12.00;99.90;;;;;;5080095;28;20496;-61
2023/05/11 03:15:37;;;;;;;28.20;23.07;;;12.00;99.90;;;;;;5080088;28;20952;-61
2023/05/11 03:18:06;;;;;;;25.70;22.13;;;12.00;99.90;;;;;;5080127;28;20737;-60
2023/05/11 03:20:37;;;;;;;25.67;22.23;;;12.00;99.90;;;;;;5080100;28;20563;-61
2023/05/11 03:23:18;;;;;;;26.30;21.50;;;12.00;99.90;;;;;;5080411;28;20909;-61
2023/05/11 03:25:46;;;;;;;26.33;21.53;;;12.00;99.90;;;;;;5079923;28;20583;-61
2023/05/11 03:28:14;;;;;;;24.50;21.07;;;12.00;99.90;;;;;;5079949;28;20891;-61
2023/05/11 03:30:45;;;;;;;22.83;19.40;;;12.00;99.90;;;;;;5079944;28;20671;-61
2023/05/11 03:33:12;;;;;;;23.27;19.87;;;12.00;99.90;;;;;;5080206;28;20461;-60
2023/05/11 03:35:43;;;;;;;24.90;21.13;;;11.90;99.90;;;;;;5086863;28;20521;-61
2023/05/11 03:38:12;;;;;;;22.17;19.33;;;11.90;99.90;;;;;;5096757;28;20460;-61
2023/05/11 03:40:41;;;;;;;22.07;18.70;;;11.90;99.90;;;;;;5096441;28;20444;-61
2023/05/11 03:43:11;;;;;;;21.30;18.83;;;12.00;99.90;;;;;;5098392;28;20462;-61
2023/05/11 03:45:41;;;;;;;20.60;17.70;;;11.90;99.90;;;;;;5098643;28;20560;-61
2023/05/11 03:48:09;;;;;;;23.13;18.73;;;11.90;99.90;;;;;;5099159;28;20930;-61
2023/05/11 03:50:40;;;;;;;23.93;19.30;;;12.00;99.90;;;;;;5099264;28;20452;-59
2023/05/11 03:53:07;;;;;;;23.10;19.50;;;12.00;99.90;;;;;;5099591;28;20867;-61
2023/05/11 03:55:35;;;;;;;19.20;15.50;;;12.00;99.90;;;;;;5099100;28;20431;-60
2023/05/11 03:58:02;;;;;;;19.90;17.53;;;11.90;99.90;;;;;;5099101;28;20452;-61
2023/05/11 04:00:29;;;;;;;14.77;12.97;;;11.90;99.90;;;;;;5098836;28;20445;-61
2023/05/11 04:02:57;;;;;;;18.47;15.10;;;12.00;99.90;;;;;;5099329;28;20448;-61
2023/05/11 04:05:24;;;;;;;17.20;15.27;;;12.00;99.90;;;;;;5097808;28;20819;-61
2023/05/11 04:07:52;;;;;;;14.97;13.43;;;12.00;94.80;;;;;;5095860;28;20528;-61
2023/05/11 04:10:21;;;;;;;17.33;15.33;;;12.00;5.40;;;;;;5099242;28;20459;-61
2023/05/11 04:12:48;;;;;;;17.97;15.83;;;12.10;1.00;;;;;;5099602;28;20515;-61
2023/05/11 04:15:15;;;;;;;20.30;15.83;;;12.10;1.00;;;;;;5098826;28;20460;-59
2023/05/11 04:17:42;;;;;;;19.27;15.73;;;12.00;1.00;;;;;;5098947;28;20460;-61
2023/05/11 04:20:10;;;;;;;16.23;14.53;;;12.00;1.00;;;;;;5098771;28;20426;-61
2023/05/11 04:22:37;;;;;;;18.47;15.30;;;12.00;1.00;;;;;;5098585;28;20860;-61
2023/05/11 04:25:06;;;;;;;15.40;13.67;;;12.00;1.00;;;;;;5099381;28;20439;-61
2023/05/11 04:27:33;;;;;;;14.70;13.00;;;12.10;1.00;;;;;;5099128;28;20466;-61
2023/05/11 04:30:01;;;;;;;15.00;13.50;;;12.10;1.00;;;;;;5098882;28;20882;-61
2023/05/11 04:32:29;;;;;;;17.53;15.53;;;12.20;1.00;;;;;;5099632;28;20467;-61
2023/05/11 04:34:56;;;;;;;16.43;14.70;;;12.20;99.90;;;;;;5099237;28;20468;-61
2023/05/11 04:37:23;;;;;;;17.10;14.33;;;12.10;99.90;;;;;;5098809;28;20478;-61
2023/05/11 04:39:50;;;;;;;15.43;13.80;;;12.10;1.00;;;;;;5098586;28;20761;-61
2023/05/11 04:42:19;;;;;;;14.03;12.63;;;12.10;1.00;;;;;;5098600;28;20460;-61
2023/05/11 04:44:46;;;;;;;16.40;13.97;;;12.10;99.90;;;;;;5099154;28;20464;-61
2023/05/11 04:47:14;;;;;;;15.67;13.83;;;12.10;10.60;;;;;;5098827;28;20492;-61
2023/05/11 04:49:42;;;;;;;18.30;15.70;;;12.10;1.00;;;;;;5098743;28;20942;-62
2023/05/11 04:52:10;;;;;;;16.20;14.47;;;12.20;1.00;;;;;;5097886;28;20464;-62
2023/05/11 04:54:38;;;;;;;18.97;15.83;;;12.10;1.00;;;;;;5099336;28;20948;-61
2023/05/11 04:57:05;;;;;;;15.33;13.70;;;12.20;62.00;;;;;;5099102;28;20517;-62
2023/05/11 04:59:33;;;;;;;14.37;12.87;;;12.10;1.00;;;;;;5098789;28;20513;-62
2023/05/11 05:02:00;;;;;;;15.20;13.60;;;12.20;99.90;;;;;;5097614;28;20439;-62
2023/05/11 05:04:28;;;;;;;16.37;13.40;;;12.20;1.00;;;;;;5098449;28;20439;-62
2023/05/11 05:06:55;;;;;;;18.27;14.33;;;12.20;99.90;;;;;;5078480;28;20489;-62
2023/05/11 05:09:22;;;;;;;15.57;13.97;;;12.20;99.90;;;;;;5077997;28;20461;-62
2023/05/11 05:11:49;;;;;;;15.33;13.73;;;12.30;99.90;;;;;;5078004;28;20476;-62
2023/05/11 05:14:16;;;;;;;16.27;14.23;;;12.30;3.90;;;;;;5077832;28;20568;-61
2023/05/11 05:16:45;;;;;;;14.90;13.10;;;12.40;1.00;;;;;;5077376;28;20551;-62
2023/05/11 05:19:12;;;;;;;17.93;15.90;;;12.60;99.90;;;;;;5077278;28;20469;-62
2023/05/11 05:21:39;;;;;;;14.87;13.40;;;12.70;99.90;;;;;;5077154;28;20464;-62
2023/05/11 05:24:10;;;;;;;15.27;13.70;;;12.80;99.90;;;;;;5077276;28;20436;-62
2023/05/11 05:26:37;;;;;;;13.83;12.37;;;12.90;1.00;;;;;;5078530;28;20576;-62
2023/05/11 05:29:05;;;;;;;13.53;12.17;;;13.00;99.90;;;;;;5076881;28;20913;-62
2023/05/11 05:31:32;;;;;;;13.00;11.80;;;13.10;1.00;;;;;;5077392;28;20466;-62
2023/05/11 05:34:01;;;;;;;12.50;11.23;;;13.10;99.90;;;;;;5095292;28;20443;-62
2023/05/11 05:36:28;;;;;;;11.93;10.80;;;13.20;99.90;;;;;;5094225;28;20456;-62
2023/05/11 05:38:55;;;;;;;12.40;11.10;;;13.40;99.90;;;;;;5094567;28;20435;-62
2023/05/11 05:41:22;;;;;;;12.40;10.97;;;13.60;99.90;;;;;;5094866;28;20460;-62
2023/05/11 05:43:50;;;;;;;12.07;10.90;;;13.50;1.00;;;;;;5094894;28;20467;-62
2023/05/11 05:46:18;;;;;;;13.13;11.73;;;13.50;6.30;;;;;;5095424;28;20464;-62
2023/05/11 05:48:45;;;;;;;12.70;11.40;;;13.60;1.00;;;;;;5096244;28;20509;-62
2023/05/11 05:51:13;;;;;;;12.93;11.47;;;13.50;1.00;;;;;;5096384;28;20456;-62
2023/05/11 05:53:41;;;;;;;12.10;10.83;;;13.70;1.00;;;;;;5098052;28;20437;-63
2023/05/11 05:56:08;;;;;;;12.70;10.90;;;13.70;1.00;;;;;;5097717;28;20538;-63
2023/05/11 05:58:36;;;;;;;10.27;9.33;;;13.80;1.00;;;;;;5097432;28;20435;-63
2023/05/11 06:01:03;;;;;;;11.43;10.23;;;14.00;1.00;;;;;;5076692;28;20474;-63
2023/05/11 06:03:30;;;;;;;13.20;10.33;;;14.20;1.00;;;;;;5076872;28;20461;-63
2023/05/11 06:05:57;;;;;;;11.07;9.70;;;14.40;1.00;;;;;;5077195;28;20449;-64
2023/05/11 06:08:26;;;;;;;12.73;11.43;;;14.60;1.00;;;;;;5077146;28;20591;-64
2023/05/11 06:10:53;;;;;;;12.90;11.70;;;14.70;1.00;;;;;;5090526;28;20459;-63
2023/05/11 06:13:20;;;;;;;13.67;12.27;;;14.40;1.00;;;;;;5116981;28;20554;-63
2023/05/11 06:15:47;;;;;;;13.83;12.43;;;14.40;1.00;;;;;;5116895;28;20438;-63
2023/05/11 06:18:14;;;;;;;14.33;12.93;;;14.50;1.00;;;;;;5114330;28;20723;-64
2023/05/11 06:20:42;;;;;;;14.57;12.80;;;14.30;1.00;;;;;;5096647;28;20423;-64
2023/05/11 06:23:09;;;;;;;15.57;13.20;;;14.40;1.00;;;;;;5094861;28;20456;-64
2023/05/11 06:25:37;;;;;;;15.70;14.10;;;14.20;1.00;;;;;;5094216;28;20525;-64
2023/05/11 06:28:05;;;;;;;14.53;13.00;;;14.00;1.00;;;;;;5094666;28;20544;-63
2023/05/11 06:30:32;;;;;;;14.90;13.40;;;14.10;1.00;;;;;;5096045;28;20492;-63
2023/05/11 06:32:59;;;;;;;18.97;16.70;;;14.10;1.00;;;;;;5078337;28;20879;-63
2023/05/11 06:35:26;;;;;;;16.70;13.33;;;14.30;1.00;;;;;;5078220;28;20457;-63
2023/05/11 06:37:53;;;;;;;14.30;12.87;;;14.50;1.00;;;;;;5080376;28;20467;-63
2023/05/11 06:40:21;;;;;;;17.03;15.23;;;14.60;1.00;;;;;;5080646;28;20465;-64
2023/05/11 06:42:49;;;;;;;17.67;15.50;;;14.60;1.00;;;;;;5079945;28;20461;-64
2023/05/11 06:45:17;;;;;;;17.27;15.60;;;14.60;1.00;;;;;;5079934;28;20461;-64
2023/05/11 06:47:44;;;;;;;19.57;15.60;;;14.60;1.00;;;;;;5079982;28;20500;-63
2023/05/11 06:50:11;;;;;;;17.87;16.03;;;14.40;1.00;;;;;;5080478;28;20461;-63
2023/05/11 06:52:38;;;;;;;18.50;16.57;;;14.30;1.00;;;;;;5059992;28;20462;-63
2023/05/11 06:55:06;;;;;;;16.70;14.90;;;14.40;1.00;;;;;;5060572;28;20458;-63
2023/05/11 06:57:33;;;;;;;18.03;16.13;;;14.50;1.00;;;;;;5060186;28;20458;-64
2023/05/11 07:00:02;;;;;;;17.17;15.27;;;14.50;1.00;;;;;;5071596;28;20559;-64
2023/05/11 07:02:30;;;;;;;17.70;15.73;;;14.50;1.00;;;;;;5078865;28;20496;-64
2023/05/11 07:04:58;;;;;;;19.10;16.00;;;14.60;1.00;;;;;;5077943;28;20461;-63
2023/05/11 07:07:25;;;;;;;19.33;16.20;;;14.50;1.00;;;;;;5078180;28;20554;-63
2023/05/11 07:09:52;;;;;;;20.03;17.93;;;14.70;1.00;;;;;;5078995;28;20855;-63
2023/05/11 07:12:19;;;;;;;22.00;16.30;;;14.80;1.00;;;;;;5071106;28;20440;-64
2023/05/11 07:14:47;;;;;;;22.03;17.60;;;14.80;1.00;;;;;;5079712;28;20489;-64
2023/05/11 07:17:15;;;;;;;18.17;16.07;;;15.20;1.00;;;;;;5076829;28;20477;-64
2023/05/11 07:19:43;;;;;;;18.50;15.00;;;15.80;1.00;;;;;;5077818;28;20976;-64
2023/05/11 07:22:10;;;;;;;17.60;15.10;;;15.90;99.90;;;;;;5077771;28;20465;-64
2023/05/11 07:24:37;;;;;;;15.47;13.90;;;16.30;1.00;;;;;;5077827;28;20440;-64
2023/05/11 07:27:04;;;;;;;17.50;14.90;;;17.00;1.00;;;;;;5079485;28;20489;-64
2023/05/11 07:29:31;;;;;;;15.70;14.10;;;16.70;99.90;;;;;;5078697;28;20563;-64
2023/05/11 07:31:58;;;;;;;17.20;15.50;;;16.20;99.90;;;;;;5096353;28;20463;-64
2023/05/11 07:34:27;;;;;;;18.40;16.57;;;16.00;99.90;;;;;;5088566;28;20540;-65
2023/05/11 07:36:54;;;;;;;17.37;15.63;;;15.90;99.90;;;;;;5082799;28;20487;-65
2023/05/11 07:39:21;;;;;;;18.43;16.53;;;15.90;99.90;;;;;;5076092;28;20484;-64
2023/05/11 07:41:48;;;;;;;18.50;15.03;;;15.80;99.90;;;;;;5075656;28;20473;-64
2023/05/11 07:44:16;;;;;;;17.20;15.33;;;15.70;99.90;;;;;;5075904;28;20747;-64
2023/05/11 07:46:43;;;;;;;15.63;14.00;;;15.50;99.90;;;;;;5076374;28;20461;-69
2023/05/11 07:49:10;;;;;;;16.27;14.60;;;15.50;99.90;;;;;;5076173;28;20500;-64
2023/05/11 07:51:38;;;;;;;16.53;14.83;;;15.50;99.90;;;;;;5076815;28;20761;-63
2023/05/11 07:54:06;;;;;;;16.90;15.00;;;15.50;99.90;;;;;;5079140;28;20451;-63
2023/05/11 07:56:33;;;;;;;16.73;14.77;;;15.60;99.90;;;;;;5081056;28;20473;-63
2023/05/11 07:59:00;;;;;;;16.37;14.67;;;15.70;99.90;;;;;;5075447;28;20906;-63
2023/05/11 08:01:27;;;;;;;15.73;14.03;;;16.00;99.90;;;;;;5095022;28;20460;-63
2023/05/11 08:03:54;;;;;;;14.60;13.10;;;16.10;99.90;;;;;;5094604;28;20698;-64
2023/05/11 08:06:21;;;;;;;16.77;15.10;;;16.20;99.90;;;;;;5095001;28;20453;-64
2023/05/11 08:08:50;;;;;;;16.63;13.90;;;16.20;99.90;;;;;;5094828;28;20491;-63
2023/05/11 08:11:18;;;;;;;14.47;12.93;;;16.70;99.90;;;;;;5094760;28;20525;-64
2023/05/11 08:13:45;;;;;;;14.13;12.70;;;17.60;99.90;;;;;;5096886;28;20452;-64
2023/05/11 08:16:12;;;;;;;14.70;13.07;;;18.10;99.90;;;;;;5097181;28;20460;-63
2023/05/11 08:18:39;;;;;;;15.47;13.87;;;18.40;99.90;;;;;;5099351;28;20431;-63
2023/05/11 08:21:07;;;;;;;13.57;12.20;;;18.40;99.90;;;;;;5095558;28;20486;-64
2023/05/11 08:23:34;;;;;;;14.17;12.73;;;18.30;99.90;;;;;;5096564;28;20767;-63
2023/05/11 08:26:03;;;;;;;14.93;13.40;;;17.90;99.90;;;;;;5097074;28;20465;-63
2023/05/11 08:28:31;;;;;;;13.57;12.30;;;17.90;99.90;;;;;;5096903;28;20839;-63
2023/05/11 08:30:59;;;;;;;12.53;11.40;;;17.10;99.90;;;;;;5097501;28;20476;-62
2023/05/11 08:33:27;;;;;;;12.50;11.30;;;16.90;99.90;;;;;;5097396;28;20439;-62
2023/05/11 08:35:54;;;;;;;13.10;11.80;;;17.10;99.90;;;;;;5098574;28;20753;-62
2023/05/11 08:38:22;;;;;;;12.30;11.10;;;17.20;99.90;;;;;;5097931;28;20818;-62
2023/05/11 08:40:50;;;;;;;13.53;12.20;;;17.30;99.90;;;;;;5098274;28;20464;-62
2023/05/11 08:43:19;;;;;;;12.87;11.60;;;17.20;99.90;;;;;;5096888;28;20460;-62
2023/05/11 08:45:47;;;;;;;14.30;12.80;;;17.00;99.90;;;;;;5097277;28;20877;-63
2023/05/11 08:48:16;;;;;;;14.03;12.63;;;17.50;99.90;;;;;;5096930;28;20956;-63
2023/05/11 08:50:44;;;;;;;12.97;11.70;;;17.80;99.90;;;;;;5096991;28;20881;-63
2023/05/11 08:53:12;;;;;;;13.03;11.70;;;18.00;99.90;;;;;;5097023;28;20467;-62
2023/05/11 08:55:40;;;;;;;10.20;9.20;;;18.00;99.90;;;;;;5096653;28;20467;-62
2023/05/11 08:58:08;;;;;;;13.00;11.80;;;17.90;99.90;;;;;;5097824;28;20490;-63
2023/05/11 09:00:37;;;;;;;12.30;11.10;;;17.90;99.90;;;;;;5097313;28;20467;-63
2023/05/11 09:03:07;;;;;;;11.57;10.50;;;18.00;99.90;;;;;;5098643;28;20917;-63
2023/05/11 09:05:35;;;;;;;13.30;11.73;;;17.80;99.90;;;;;;5097944;28;20803;-63
2023/05/11 09:08:06;;;;;;;12.80;11.60;;;17.40;99.90;;;;;;5097537;28;20473;-63
2023/05/11 09:10:33;;;;;;;12.37;11.17;;;17.40;99.90;;;;;;5094692;28;20468;-63
2023/05/11 09:13:00;;;;;;;13.00;11.70;;;17.40;99.90;;;;;;5095251;28;20442;-63
2023/05/11 09:15:27;;;;;;;12.53;11.30;;;17.20;99.90;;;;;;5095141;28;20460;-63
2023/05/11 09:17:56;;;;;;;14.50;13.00;;;17.00;99.90;;;;;;5095261;28;20558;-63
2023/05/11 09:20:28;;;;;;;14.40;12.93;;;16.70;99.90;;;;;;5094721;28;20476;-63
2023/05/11 09:22:56;;;;;;;17.70;13.90;;;16.80;99.90;;;;;;5094930;28;20522;-63
2023/05/11 09:25:24;;;;;;;15.90;14.40;;;16.50;99.90;;;;;;5096540;28;20435;-63
2023/05/11 09:27:52;;;;;;;16.63;15.00;;;16.20;99.90;;;;;;5098219;28;20491;-63
2023/05/11 09:30:21;;;;;;;16.67;14.97;;;16.30;99.90;;;;;;5101680;28;20487;-62
2023/05/11 09:32:49;;;;;;;15.00;13.00;;;16.10;99.90;;;;;;5116998;28;20462;-63
2023/05/11 09:35:27;;;;;;;15.03;13.40;;;16.10;99.90;;;;;;5118312;28;20752;-63
2023/05/11 09:38:04;;;;;;;14.73;13.40;;;16.10;99.90;;;;;;5101560;28;20764;-62
2023/05/11 09:40:32;;;;;;;15.50;14.10;;;16.20;99.90;;;;;;5100101;28;20455;-62
2023/05/11 09:43:00;;;;;;;15.07;13.50;;;16.50;99.90;;;;;;5090184;28;20450;-62
2023/05/11 09:45:38;;;;;;;16.27;14.57;;;16.60;99.90;;;;;;5077196;28;20515;-62
2023/05/11 09:48:07;;;;;;;15.10;13.67;;;16.60;99.90;;;;;;5083497;28;20541;-62
2023/05/11 09:50:36;;;;;;;15.50;14.00;;;16.40;99.90;;;;;;5097835;28;20870;-62
2023/05/11 09:53:03;;;;;;;15.30;13.80;;;16.20;99.90;;;;;;5096053;28;20464;-62
2023/05/11 09:55:31;;;;;;;16.67;15.17;;;16.30;99.90;;;;;;5097204;28;20489;-62
2023/05/11 09:58:00;;;;;;;14.60;13.27;;;16.30;99.90;;;;;;5097093;28;20437;-62
2023/05/11 10:00:27;;;;;;;13.60;12.20;;;16.30;99.90;;;;;;5095422;28;20464;-62
2023/05/11 10:03:02;;;;;;;15.13;13.50;;;16.40;99.90;;;;;;5097296;28;20464;-62
2023/05/11 10:05:31;;;;;;;12.37;11.10;;;16.40;99.90;;;;;;5096076;28;20454;-62
2023/05/11 10:08:01;;;;;;;13.60;12.30;;;16.30;99.90;;;;;;5097404;28;20822;-62
2023/05/11 10:10:29;;;;;;;13.17;11.83;;;16.20;99.90;;;;;;5097122;28;20503;-62
2023/05/11 10:12:58;;;;;;;12.50;11.30;;;16.30;99.90;;;;;;5094282;28;20558;-62
2023/05/11 10:15:29;;;;;;;12.70;11.50;;;16.60;99.90;;;;;;5095686;28;20472;-62
2023/05/11 10:17:58;;;;;;;15.57;13.40;;;16.70;99.90;;;;;;5076415;28;20468;-63
2023/05/11 10:20:26;;;;;;;13.87;12.53;;;16.80;99.90;;;;;;5075769;28;20465;-62
2023/05/11 10:22:54;;;;;;;13.27;12.07;;;16.80;99.90;;;;;;5092148;28;20490;-62
2023/05/11 10:25:25;;;;;;;13.50;12.10;;;16.90;99.90;;;;;;5095629;28;20471;-62
2023/05/11 10:27:53;;;;;;;15.03;13.53;;;16.90;99.90;;;;;;5094450;28;20469;-62
2023/05/11 10:30:21;;;;;;;16.07;14.40;;;16.80;99.90;;;;;;5096660;28;20775;-63
2023/05/11 10:32:49;;;;;;;15.40;13.80;;;16.70;99.90;;;;;;5093386;28;20615;-62
2023/05/11 10:35:16;;;;;;;17.00;14.30;;;16.80;99.90;;;;;;5097179;28;20456;-62
2023/05/11 10:37:46;;;;;;;17.83;15.93;;;16.80;99.90;;;;;;5097141;28;20967;-62
2023/05/11 10:40:14;;;;;;;17.53;15.73;;;16.80;99.90;;;;;;5097335;28;20514;-62
2023/05/11 10:43:17;;;;;;;18.80;17.00;;;16.70;99.90;;;;;;5097342;28;20460;-62
2023/05/11 10:45:52;;;;;;;17.67;15.50;;;16.50;99.90;;;;;;5094870;28;20472;-62
2023/05/11 10:48:49;;;;;;;17.10;15.30;;;16.60;99.90;;;;;;5096714;28;20514;-63
2023/05/11 10:51:58;;;;;;;19.20;17.20;;;16.80;99.90;;;;;;5097443;28;20764;-62
2023/05/11 10:54:49;;;;;;;16.20;14.50;;;17.00;99.90;;;;;;5090290;28;20468;-62
2023/05/11 10:57:33;;;;;;;18.50;16.70;;;17.20;99.90;;;;;;5096955;28;20483;-63
2023/05/11 11:00:46;;;;;;;17.80;15.97;;;17.30;99.90;;;;;;5096913;28;20452;-62
2023/05/11 11:03:14;;;;;;;16.23;14.67;;;17.30;99.90;;;;;;5095402;28;20442;-63
2023/05/11 11:05:44;;;;;;;16.60;14.80;;;17.40;99.90;;;;;;5094069;28;20443;-63
2023/05/11 11:08:11;;;;;;;17.93;16.07;;;17.50;99.90;;;;;;5095878;28;20531;-62
2023/05/11 11:10:40;;;;;;;17.03;15.43;;;17.60;99.90;;;;;;5096090;28;20464;-63
2023/05/11 11:13:08;;;;;;;16.30;14.70;;;17.80;99.90;;;;;;5096738;28;20884;-62
2023/05/11 11:16:11;;;;;;;18.77;16.93;;;17.80;99.90;;;;;;5097648;28;20468;-62
2023/05/11 11:18:38;;;;;;;19.10;17.30;;;17.90;99.90;;;;;;5097263;28;20467;-62
2023/05/11 11:21:06;;;;;;;17.50;15.83;;;17.90;99.90;;;;;;5099408;28;20471;-63
2023/05/11 11:23:44;;;;;;;18.17;15.87;;;18.00;99.90;;;;;;5100001;28;20844;-62
2023/05/11 11:26:14;;;;;;;18.90;17.10;;;17.90;99.90;;;;;;5099280;28;20460;-61
2023/05/11 11:29:12;;;;;;;18.53;16.77;;;17.60;99.90;;;;;;5092970;28;20510;-61
2023/05/11 11:31:41;;;;;;;18.30;16.20;;;17.70;99.90;;;;;;5096935;28;20503;-62
2023/05/11 11:34:36;;;;;;;19.20;17.47;;;17.20;99.90;;;;;;5084181;28;20473;-62
2023/05/11 11:37:05;;;;;;;20.43;18.43;;;17.20;99.90;;;;;;5082071;28;20743;-61
2023/05/11 11:40:00;;;;;;;20.83;18.63;;;17.30;99.90;;;;;;5098587;28;20880;-61
2023/05/11 11:42:41;;;;;;;20.07;17.97;;;17.20;99.90;;;;;;5057987;28;20571;-61
2023/05/11 11:45:31;;;;;;;18.83;16.83;;;17.50;99.90;;;;;;5097784;28;20488;-61
2023/05/11 11:48:12;;;;;;;18.10;16.40;;;17.50;99.90;;;;;;5088918;28;20466;-61
2023/05/11 11:50:43;;;;;;;17.20;15.43;;;17.90;99.90;;;;;;5095611;28;20543;-61
2023/05/11 11:53:12;;;;;;;18.87;16.97;;;18.20;99.90;;;;;;5095252;28;20539;-60
2023/05/11 11:55:49;;;;;;;19.60;17.40;;;18.30;99.90;;;;;;5095521;28;20510;-60
2023/05/11 11:58:54;;;;;;;20.37;18.37;;;18.60;99.90;;;;;;5095897;28;20988;-61
2023/05/11 12:01:24;;;;;;;19.17;17.23;;;18.90;99.90;;;;;;5095925;28;20742;-62
2023/05/11 12:04:33;;;;;;;18.70;16.90;;;19.10;99.90;;;;;;5091548;28;20480;-62
2023/05/11 12:07:02;;;;;;;18.53;16.73;;;19.30;99.90;;;;;;5077551;28;20464;-62
2023/05/11 12:09:30;;;;;;;17.90;16.20;;;19.10;99.90;;;;;;5084382;28;20500;-61
2023/05/11 12:11:58;;;;;;;18.77;16.60;;;18.40;99.90;;;;;;5094336;28;20506;-62
2023/05/11 12:14:26;;;;;;;18.63;16.87;;;18.30;99.90;;;;;;5091243;28;20739;-61
2023/05/11 12:17:12;;;;;;;19.97;18.03;;;17.90;99.90;;;;;;5093298;28;20472;-61
2023/05/11 12:19:43;;;;;;;19.70;17.70;;;17.10;99.90;;;;;;5095406;28;21049;-61
2023/05/11 12:22:13;;;;;;;21.77;19.70;;;16.70;99.90;;;;;;5092482;28;20522;-61
2023/05/11 12:24:43;;;;;;;23.50;21.00;;;16.30;99.90;;;;;;5091211;28;20457;-60
2023/05/11 12:27:11;;;;;;;23.17;19.50;;;16.10;99.90;;;;;;5080702;28;20465;-61
2023/05/11 12:29:39;;;;;;;24.07;21.77;;;16.10;99.90;;;;;;5087050;28;20792;-61
2023/05/11 12:32:12;;;;;;;22.93;20.50;;;16.00;99.90;;;;;;5088677;28;20496;-61
2023/05/11 12:34:41;;;;;;;23.00;20.77;;;16.10;99.90;;;;;;5094182;28;20479;-60
2023/05/11 12:37:08;;;;;;;25.80;23.10;;;16.30;99.90;;;;;;5091515;28;20901;-61
2023/05/11 12:39:36;;;;;;;26.07;23.47;;;16.40;99.90;;;;;;5092386;28;20893;-61
2023/05/11 12:42:04;;;;;;;25.40;23.00;;;16.60;99.90;;;;;;5094020;28;20469;-61